createdAt,value
2018-09-29T00:02:12.423Z,8.80
2018-09-29T00:04:41.288Z,8.47
2018-09-29T00:07:10.072Z,7.87
2018-09-29T00:09:38.933Z,7.70
2018-09-29T00:12:07.852Z,8.60
2018-09-29T00:14:36.637Z,8.43
2018-09-29T00:17:05.555Z,8.33
2018-09-29T00:19:34.380Z,8.60
2018-09-29T00:22:03.346Z,8.07
2018-09-29T00:24:32.247Z,7.90
2018-09-29T00:27:01.068Z,8.53
2018-09-29T00:29:30.097Z,9.17
2018-09-29T00:31:58.937Z,8.60
2018-09-29T00:34:27.779Z,8.87
2018-09-29T00:36:56.560Z,8.97
2018-09-29T00:39:25.355Z,8.97
2018-09-29T00:41:54.167Z,8.10
2018-09-29T00:44:22.980Z,8.17
2018-09-29T00:46:51.796Z,8.60
2018-09-29T00:49:20.652Z,9.00
2018-09-29T00:51:49.475Z,8.30
2018-09-29T00:54:18.377Z,9.10
2018-09-29T00:56:47.240Z,9.03
2018-09-29T00:59:16.047Z,8.77
2018-09-29T01:01:44.896Z,8.53
2018-09-29T01:04:13.767Z,8.20
2018-09-29T01:06:42.570Z,8.83
2018-09-29T01:09:11.366Z,8.67
2018-09-29T01:11:40.483Z,7.70
2018-09-29T01:14:09.660Z,7.80
2018-09-29T01:16:38.448Z,8.10
2018-09-29T01:19:07.307Z,8.73
2018-09-29T01:21:36.125Z,10.07
2018-09-29T01:24:04.947Z,9.47
2018-09-29T01:26:33.837Z,9.77
2018-09-29T01:29:02.723Z,9.53
2018-09-29T01:31:31.605Z,9.10
2018-09-29T01:34:00.464Z,8.40
2018-09-29T01:36:29.354Z,9.23
2018-09-29T01:38:58.167Z,8.30
2018-09-29T01:41:27.036Z,8.70
2018-09-29T01:43:55.826Z,8.30
2018-09-29T01:46:24.699Z,8.10
2018-09-29T01:48:53.568Z,8.40
2018-09-29T01:51:22.336Z,8.37
2018-09-29T01:53:57.640Z,7.53
2018-09-29T01:56:26.408Z,8.23
2018-09-29T01:58:55.239Z,7.93
2018-09-29T02:01:24.107Z,8.67
2018-09-29T02:03:52.895Z,10.30
2018-09-29T02:06:21.683Z,9.53
2018-09-29T02:08:50.469Z,9.17
2018-09-29T02:11:19.304Z,9.03
2018-09-29T02:13:48.153Z,8.00
2018-09-29T02:16:17.005Z,8.80
2018-09-29T02:18:45.851Z,8.90
2018-09-29T02:21:14.735Z,8.33
2018-09-29T02:23:43.556Z,7.67
2018-09-29T02:26:12.424Z,8.80
2018-09-29T02:28:41.663Z,8.07
2018-09-29T02:31:10.542Z,7.67
2018-09-29T02:33:39.342Z,7.97
2018-09-29T02:36:08.167Z,8.30
2018-09-29T02:38:37.010Z,7.90
2018-09-29T02:41:06.000Z,8.20
2018-09-29T02:43:34.828Z,7.90
2018-09-29T02:46:03.601Z,7.93
2018-09-29T02:48:32.537Z,9.37
2018-09-29T02:51:01.376Z,8.70
2018-09-29T02:53:30.228Z,8.30
2018-09-29T02:55:59.084Z,8.90
2018-09-29T02:58:27.888Z,8.43
2018-09-29T03:00:56.726Z,7.90
2018-09-29T03:03:25.517Z,7.30
2018-09-29T03:05:54.323Z,8.03
2018-09-29T03:08:23.184Z,8.00
2018-09-29T03:10:51.991Z,8.43
2018-09-29T03:13:20.891Z,8.70
2018-09-29T03:15:50.515Z,8.20
2018-09-29T03:18:19.344Z,9.00
2018-09-29T03:20:48.232Z,8.67
2018-09-29T03:23:17.100Z,8.07
2018-09-29T03:25:46.108Z,8.27
2018-09-29T03:28:15.185Z,8.00
2018-09-29T03:30:43.996Z,8.10
2018-09-29T03:33:12.816Z,8.70
2018-09-29T03:35:41.652Z,8.00
2018-09-29T03:38:10.508Z,7.90
2018-09-29T03:40:39.352Z,7.57
2018-09-29T03:43:08.243Z,7.43
2018-09-29T03:45:37.180Z,8.40
2018-09-29T03:48:06.064Z,8.50
2018-09-29T03:50:34.889Z,7.90
2018-09-29T03:53:03.849Z,7.63
2018-09-29T03:55:32.830Z,8.90
2018-09-29T03:58:01.649Z,8.23
2018-09-29T04:00:30.494Z,10.17
2018-09-29T04:02:59.410Z,9.10
2018-09-29T04:05:28.260Z,8.23
2018-09-29T04:07:57.052Z,10.20
2018-09-29T04:10:25.844Z,9.90
2018-09-29T04:12:54.762Z,9.77
2018-09-29T04:15:23.655Z,10.00
2018-09-29T04:17:52.499Z,9.47
2018-09-29T04:20:21.362Z,9.87
2018-09-29T04:22:50.170Z,10.13
2018-09-29T04:25:18.961Z,9.60
2018-09-29T04:27:47.735Z,9.07
2018-09-29T04:30:16.564Z,8.97
2018-09-29T04:32:45.503Z,8.30
2018-09-29T04:35:14.396Z,8.03
2018-09-29T04:37:43.273Z,8.10
2018-09-29T04:40:12.483Z,8.13
2018-09-29T04:42:41.394Z,8.03
2018-09-29T04:45:10.240Z,8.17
2018-09-29T04:47:39.331Z,8.40
2018-09-29T04:50:08.088Z,8.97
2018-09-29T04:52:36.873Z,8.40
2018-09-29T04:55:05.971Z,8.73
2018-09-29T04:57:34.736Z,10.27
2018-09-29T05:00:04.947Z,9.60
2018-09-29T05:02:33.747Z,9.03
2018-09-29T05:05:02.557Z,9.23
2018-09-29T05:07:31.364Z,9.47
2018-09-29T05:10:00.239Z,8.63
2018-09-29T05:12:29.004Z,9.10
2018-09-29T05:14:57.861Z,9.03
2018-09-29T05:17:26.760Z,9.10
2018-09-29T05:19:55.671Z,9.00
2018-09-29T05:22:24.532Z,8.80
2018-09-29T05:24:53.389Z,9.97
2018-09-29T05:27:22.415Z,9.70
2018-09-29T05:29:51.204Z,9.90
2018-09-29T05:32:20.085Z,9.17
2018-09-29T05:34:48.959Z,9.33
2018-09-29T05:37:17.768Z,8.80
2018-09-29T05:39:53.406Z,8.93
2018-09-29T05:42:22.389Z,7.97
2018-09-29T05:44:51.307Z,13.67
2018-09-29T05:47:20.424Z,10.33
2018-09-29T05:49:49.241Z,9.30
2018-09-29T05:52:18.808Z,9.77
2018-09-29T05:54:47.600Z,9.77
2018-09-29T05:57:16.493Z,9.37
2018-09-29T05:59:45.352Z,10.53
2018-09-29T06:02:14.171Z,11.27
2018-09-29T06:04:42.965Z,11.50
2018-09-29T06:07:11.901Z,11.80
2018-09-29T06:09:40.825Z,11.77
2018-09-29T06:12:09.656Z,11.27
2018-09-29T06:14:38.512Z,11.30
2018-09-29T06:17:07.315Z,9.97
2018-09-29T06:19:36.193Z,8.93
2018-09-29T06:22:05.075Z,9.17
2018-09-29T06:24:33.899Z,9.13
2018-09-29T06:27:02.879Z,8.97
2018-09-29T06:29:31.692Z,9.23
2018-09-29T06:32:00.653Z,9.77
2018-09-29T06:34:31.449Z,9.33
2018-09-29T06:37:00.381Z,9.20
2018-09-29T06:39:29.218Z,9.57
2018-09-29T06:41:58.357Z,9.47
2018-09-29T06:44:27.308Z,9.43
2018-09-29T06:46:56.135Z,8.97
2018-09-29T06:49:24.985Z,9.70
2018-09-29T06:51:54.040Z,9.03
2018-09-29T06:54:22.928Z,9.80
2018-09-29T06:56:52.035Z,10.33
2018-09-29T06:59:20.828Z,10.17
2018-09-29T07:01:49.664Z,9.67
2018-09-29T07:04:18.574Z,10.70
2018-09-29T07:06:49.196Z,11.50
2018-09-29T07:09:17.987Z,10.40
2018-09-29T07:11:46.883Z,10.93
2018-09-29T07:14:15.763Z,10.20
2018-09-29T07:16:44.743Z,10.30
2018-09-29T07:19:14.015Z,9.93
2018-09-29T07:21:42.909Z,10.43
2018-09-29T07:24:11.825Z,10.50
2018-09-29T07:26:40.732Z,10.10
2018-09-29T07:29:09.651Z,10.63
2018-09-29T07:31:38.671Z,13.07
2018-09-29T07:34:08.117Z,11.73
2018-09-29T07:36:36.958Z,10.50
2018-09-29T07:39:08.443Z,11.73
2018-09-29T07:41:37.402Z,11.20
2018-09-29T07:44:06.338Z,11.80
2018-09-29T07:46:35.154Z,11.30
2018-09-29T07:49:04.047Z,11.43
2018-09-29T07:51:33.179Z,11.23
2018-09-29T07:54:02.072Z,10.00
2018-09-29T07:56:30.995Z,10.27
2018-09-29T07:59:00.078Z,10.60
2018-09-29T08:01:29.046Z,10.90
2018-09-29T08:03:57.862Z,11.00
2018-09-29T08:06:26.793Z,10.63
2018-09-29T08:08:55.817Z,11.73
2018-09-29T08:11:24.667Z,10.73
2018-09-29T08:13:53.609Z,9.87
2018-09-29T08:16:22.445Z,11.10
2018-09-29T08:18:51.238Z,10.77
2018-09-29T08:21:20.277Z,10.40
2018-09-29T08:23:49.505Z,10.60
2018-09-29T08:26:18.680Z,10.77
2018-09-29T08:28:47.482Z,11.10
2018-09-29T08:31:16.521Z,10.37
2018-09-29T08:33:45.297Z,11.57
2018-09-29T08:36:14.163Z,10.20
2018-09-29T08:38:43.057Z,11.57
2018-09-29T08:41:11.871Z,10.57
2018-09-29T08:43:40.684Z,11.10
2018-09-29T08:46:09.659Z,11.17
2018-09-29T08:48:38.457Z,11.63
2018-09-29T08:51:07.299Z,12.37
2018-09-29T08:53:36.217Z,12.27
2018-09-29T08:56:05.186Z,12.37
2018-09-29T08:58:33.993Z,11.73
2018-09-29T09:01:03.024Z,13.17
2018-09-29T09:03:31.943Z,12.77
2018-09-29T09:06:00.878Z,11.53
2018-09-29T09:08:29.676Z,12.53
2018-09-29T09:10:58.513Z,12.47
2018-09-29T09:13:27.379Z,11.13
2018-09-29T09:15:56.212Z,11.50
2018-09-29T09:18:25.008Z,10.60
2018-09-29T09:20:53.839Z,10.97
2018-09-29T09:23:22.741Z,11.47
2018-09-29T09:25:51.589Z,11.00
2018-09-29T09:28:20.358Z,11.40
2018-09-29T09:30:49.239Z,10.63
2018-09-29T09:33:18.056Z,9.73
2018-09-29T09:35:46.876Z,10.37
2018-09-29T09:38:15.810Z,11.17
2018-09-29T09:40:44.740Z,9.87
2018-09-29T09:43:13.547Z,9.77
2018-09-29T09:45:42.450Z,9.60
2018-09-29T09:48:11.287Z,9.67
2018-09-29T09:50:40.136Z,9.17
2018-09-29T09:53:08.961Z,8.90
2018-09-29T09:55:37.776Z,7.90
2018-09-29T09:58:06.808Z,8.93
2018-09-29T10:00:40.762Z,9.73
2018-09-29T10:03:14.684Z,8.77
2018-09-29T10:05:43.683Z,10.10
2018-09-29T10:08:12.484Z,10.00
2018-09-29T10:10:42.398Z,6.70
2018-09-29T10:13:11.279Z,6.83
2018-09-29T10:15:40.104Z,9.33
2018-09-29T10:18:08.971Z,10.30
2018-09-29T10:20:37.759Z,5.80
2018-09-29T10:23:06.805Z,7.00
2018-09-29T10:25:35.597Z,5.50
2018-09-29T10:28:04.492Z,5.20
2018-09-29T10:30:33.315Z,6.97
2018-09-29T10:33:02.136Z,7.10
2018-09-29T10:35:30.933Z,6.33
2018-09-29T10:38:00.149Z,6.07
2018-09-29T10:40:28.984Z,7.10
2018-09-29T10:42:57.862Z,6.03
2018-09-29T10:45:26.741Z,6.90
2018-09-29T10:47:55.561Z,6.83
2018-09-29T10:50:24.510Z,6.13
2018-09-29T10:52:53.334Z,6.73
2018-09-29T10:55:22.431Z,6.80
2018-09-29T10:57:51.273Z,7.07
2018-09-29T11:00:20.161Z,7.47
2018-09-29T11:02:49.068Z,6.30
2018-09-29T11:05:17.900Z,8.43
2018-09-29T11:07:46.680Z,8.20
2018-09-29T11:10:15.482Z,6.73
2018-09-29T11:12:44.497Z,5.97
2018-09-29T11:15:13.500Z,5.00
2018-09-29T11:17:42.373Z,5.00
2018-09-29T11:20:11.227Z,5.37
2018-09-29T11:22:40.055Z,5.13
2018-09-29T11:25:09.340Z,5.60
2018-09-29T11:27:38.307Z,5.60
2018-09-29T11:30:07.689Z,6.20
2018-09-29T11:32:36.557Z,5.83
2018-09-29T11:35:05.646Z,6.03
2018-09-29T11:37:34.484Z,6.70
2018-09-29T11:40:03.253Z,7.43
2018-09-29T11:42:32.188Z,6.60
2018-09-29T11:45:01.013Z,6.50
2018-09-29T11:47:29.840Z,6.40
2018-09-29T11:49:58.646Z,5.03
2018-09-29T11:52:27.528Z,14.57
2018-09-29T11:54:57.019Z,4.77
2018-09-29T11:57:25.906Z,12.20
2018-09-29T11:59:54.803Z,29.80
2018-09-29T12:02:23.689Z,5.67
2018-09-29T12:04:52.644Z,5.60
2018-09-29T12:07:21.592Z,7.90
2018-09-29T12:09:50.529Z,4.87
2018-09-29T12:12:20.048Z,8.70
2018-09-29T12:14:49.344Z,8.63
2018-09-29T12:17:18.291Z,6.00
2018-09-29T12:19:47.189Z,5.60
2018-09-29T12:22:16.091Z,7.20
2018-09-29T12:24:45.164Z,5.57
2018-09-29T12:27:14.036Z,4.03
2018-09-29T12:29:43.295Z,4.33
2018-09-29T12:32:12.329Z,4.37
2018-09-29T12:34:41.232Z,4.50
2018-09-29T12:37:10.112Z,4.23
2018-09-29T12:39:39.017Z,3.90
2018-09-29T12:42:07.864Z,4.40
2018-09-29T12:44:36.766Z,4.10
2018-09-29T12:47:06.090Z,3.80
2018-09-29T12:49:35.295Z,4.40
2018-09-29T12:52:04.285Z,4.23
2018-09-29T12:54:33.277Z,4.10
2018-09-29T12:57:02.079Z,4.67
2018-09-29T12:59:30.879Z,4.47
2018-09-29T13:01:59.699Z,4.43
2018-09-29T13:04:28.604Z,4.80
2018-09-29T13:06:57.528Z,4.27
2018-09-29T13:09:26.523Z,4.43
2018-09-29T13:11:55.372Z,4.93
2018-09-29T13:14:24.236Z,4.63
2018-09-29T13:16:53.189Z,4.23
2018-09-29T13:19:22.228Z,4.30
2018-09-29T13:21:51.064Z,4.33
2018-09-29T13:24:20.041Z,4.10
2018-09-29T13:26:48.932Z,3.50
2018-09-29T13:29:17.704Z,3.70
2018-09-29T13:31:46.506Z,3.60
2018-09-29T13:34:15.515Z,3.37
2018-09-29T13:36:44.325Z,3.80
2018-09-29T13:39:13.199Z,3.67
2018-09-29T13:41:42.060Z,3.83
2018-09-29T13:44:10.902Z,3.70
2018-09-29T13:46:39.646Z,3.70
2018-09-29T13:49:08.428Z,3.70
2018-09-29T13:51:37.261Z,3.30
2018-09-29T13:54:06.230Z,3.47
2018-09-29T13:56:35.076Z,3.50
2018-09-29T13:59:03.974Z,3.77
2018-09-29T14:01:32.820Z,3.60
2018-09-29T14:04:01.689Z,3.10
2018-09-29T14:06:30.553Z,3.40
2018-09-29T14:08:59.393Z,3.90
2018-09-29T14:11:28.322Z,3.77
2018-09-29T14:13:57.252Z,4.03
2018-09-29T14:16:26.140Z,3.37
2018-09-29T14:18:54.924Z,3.93
2018-09-29T14:21:23.820Z,4.30
2018-09-29T14:23:52.656Z,4.00
2018-09-29T14:26:21.420Z,3.80
2018-09-29T14:28:50.204Z,3.90
2018-09-29T14:31:18.998Z,4.10
2018-09-29T14:33:47.825Z,4.60
2018-09-29T14:36:16.667Z,4.40
2018-09-29T14:38:45.485Z,4.17
2018-09-29T14:41:17.330Z,4.33
2018-09-29T14:43:46.105Z,4.60
2018-09-29T14:46:15.021Z,4.53
2018-09-29T14:48:43.799Z,4.50
2018-09-29T14:51:12.734Z,4.47
2018-09-29T14:53:41.713Z,4.70
2018-09-29T14:56:10.507Z,4.60
2018-09-29T14:58:39.400Z,4.30
2018-09-29T15:01:08.371Z,4.80
2018-09-29T15:03:37.216Z,4.43
2018-09-29T15:06:05.989Z,4.40
2018-09-29T15:08:34.956Z,4.87
2018-09-29T15:11:03.810Z,4.80
2018-09-29T15:13:32.677Z,5.00
2018-09-29T15:16:01.513Z,4.63
2018-09-29T15:18:30.394Z,5.20
2018-09-29T15:20:59.252Z,5.23
2018-09-29T15:23:28.149Z,4.90
2018-09-29T15:25:57.029Z,4.60
2018-09-29T15:28:26.121Z,5.23
2018-09-29T15:30:54.960Z,5.43
2018-09-29T15:33:23.882Z,5.33
2018-09-29T15:35:52.725Z,5.00
2018-09-29T15:38:21.559Z,5.00
2018-09-29T15:40:50.387Z,4.90
2018-09-29T15:43:19.216Z,5.00
2018-09-29T15:45:48.625Z,5.10
2018-09-29T15:48:17.701Z,5.23
2018-09-29T15:50:46.509Z,4.97
2018-09-29T15:53:15.294Z,5.10
2018-09-29T15:55:44.161Z,5.67
2018-09-29T15:58:13.196Z,5.20
2018-09-29T16:00:42.034Z,5.90
2018-09-29T16:03:10.861Z,6.43
2018-09-29T16:05:39.728Z,8.40
2018-09-29T16:08:08.660Z,8.87
2018-09-29T16:10:37.471Z,10.20
2018-09-29T16:13:06.404Z,10.17
2018-09-29T16:15:35.239Z,10.10
2018-09-29T16:18:04.036Z,9.97
2018-09-29T16:20:32.833Z,10.33
2018-09-29T16:23:01.685Z,9.77
2018-09-29T16:25:30.994Z,11.80
2018-09-29T16:27:59.832Z,15.53
2018-09-29T16:30:28.777Z,10.27
2018-09-29T16:32:57.709Z,10.13
2018-09-29T16:35:26.572Z,11.40
2018-09-29T16:37:55.370Z,10.70
2018-09-29T16:40:24.268Z,11.67
2018-09-29T16:42:53.069Z,12.57
2018-09-29T16:45:22.066Z,12.30
2018-09-29T16:47:51.035Z,12.23
2018-09-29T16:50:20.058Z,12.47
2018-09-29T16:52:48.962Z,12.23
2018-09-29T16:55:17.797Z,11.57
2018-09-29T16:57:46.686Z,11.37
2018-09-29T17:00:18.274Z,12.17
2018-09-29T17:02:47.069Z,12.13
2018-09-29T17:05:15.897Z,11.67
2018-09-29T17:07:44.772Z,11.43
2018-09-29T17:10:13.682Z,11.97
2018-09-29T17:12:42.708Z,11.97
2018-09-29T17:15:11.624Z,12.63
2018-09-29T17:17:40.549Z,12.67
2018-09-29T17:20:09.440Z,12.50
2018-09-29T17:22:38.360Z,12.43
2018-09-29T17:25:07.313Z,13.10
2018-09-29T17:27:36.109Z,13.43
2018-09-29T17:30:06.910Z,13.70
2018-09-29T17:32:35.833Z,13.47
2018-09-29T17:35:05.052Z,13.57
2018-09-29T17:37:34.021Z,13.47
2018-09-29T17:40:03.008Z,13.33
2018-09-29T17:42:31.898Z,14.40
2018-09-29T17:45:00.739Z,13.73
2018-09-29T17:47:29.632Z,14.30
2018-09-29T17:49:58.453Z,17.60
2018-09-29T17:52:27.396Z,13.53
2018-09-29T17:54:56.851Z,15.30
2018-09-29T17:57:27.594Z,14.67
2018-09-29T18:00:15.367Z,13.60
2018-09-29T18:03:27.888Z,13.97
2018-09-29T18:05:56.881Z,13.77
2018-09-29T18:08:25.961Z,12.70
2018-09-29T18:10:55.548Z,12.90
2018-09-29T18:13:24.567Z,12.90
2018-09-29T18:15:53.549Z,12.10
2018-09-29T18:18:22.670Z,12.03
2018-09-29T18:20:51.567Z,12.43
2018-09-29T18:23:20.597Z,12.13
2018-09-29T18:25:49.506Z,11.63
2018-09-29T18:28:18.454Z,11.63
2018-09-29T18:30:47.338Z,12.00
2018-09-29T18:33:16.155Z,12.17
2018-09-29T18:35:45.034Z,12.37
2018-09-29T18:38:20.601Z,12.47
2018-09-29T18:40:49.588Z,13.03
2018-09-29T18:43:18.421Z,13.23
2018-09-29T18:45:47.297Z,13.10
2018-09-29T18:48:16.380Z,12.70
2018-09-29T18:50:45.659Z,13.80
2018-09-29T18:53:14.966Z,12.87
2018-09-29T18:55:43.964Z,13.63
2018-09-29T18:58:12.902Z,13.43
2018-09-29T19:00:41.911Z,14.07
2018-09-29T19:03:10.846Z,13.67
2018-09-29T19:05:46.420Z,14.53
2018-09-29T19:08:15.300Z,13.93
2018-09-29T19:10:44.171Z,15.03
2018-09-29T19:13:13.096Z,14.10
2018-09-29T19:15:41.987Z,14.47
2018-09-29T19:18:10.793Z,14.60
2018-09-29T19:20:39.737Z,14.20
2018-09-29T19:23:08.555Z,14.53
2018-09-29T19:25:37.486Z,15.43
2018-09-29T19:28:06.287Z,15.50
2018-09-29T19:30:35.099Z,15.37
2018-09-29T19:33:03.948Z,16.00
2018-09-29T19:35:32.848Z,15.80
2018-09-29T19:38:01.708Z,15.83
2018-09-29T19:40:30.509Z,17.00
2018-09-29T19:42:59.331Z,16.43
2018-09-29T19:45:28.259Z,17.50
2018-09-29T19:47:57.206Z,17.90
2018-09-29T19:50:26.120Z,18.97
2018-09-29T19:52:55.093Z,18.17
2018-09-29T19:55:23.921Z,18.70
2018-09-29T19:57:52.904Z,18.60
2018-09-29T20:00:21.739Z,18.77
2018-09-29T20:02:50.731Z,19.27
2018-09-29T20:05:19.602Z,19.63
2018-09-29T20:07:48.550Z,19.13
2018-09-29T20:10:17.605Z,19.07
2018-09-29T20:12:46.733Z,21.13
2018-09-29T20:15:16.077Z,20.83
2018-09-29T20:17:44.958Z,20.87
2018-09-29T20:20:13.882Z,19.93
2018-09-29T20:22:42.726Z,21.03
2018-09-29T20:25:12.250Z,20.40
2018-09-29T20:27:41.213Z,20.23
2018-09-29T20:30:10.224Z,20.80
2018-09-29T20:32:39.064Z,20.20
2018-09-29T20:35:08.393Z,19.77
2018-09-29T20:37:37.238Z,21.43
2018-09-29T20:40:06.208Z,20.63
2018-09-29T20:42:35.100Z,21.50
2018-09-29T20:45:04.010Z,21.03
2018-09-29T20:47:32.840Z,21.77
2018-09-29T20:50:01.714Z,21.37
2018-09-29T20:52:31.250Z,20.87
2018-09-29T20:55:00.317Z,20.53
2018-09-29T20:57:29.404Z,21.30
2018-09-29T20:59:58.486Z,21.60
2018-09-29T21:02:27.775Z,20.47
2018-09-29T21:04:56.820Z,21.10
2018-09-29T21:07:25.723Z,20.90
2018-09-29T21:09:54.578Z,21.27
2018-09-29T21:12:24.020Z,21.73
2018-09-29T21:14:52.875Z,22.07
2018-09-29T21:17:21.812Z,21.60
2018-09-29T21:19:50.692Z,21.90
2018-09-29T21:22:19.521Z,21.17
2018-09-29T21:24:48.395Z,21.33
2018-09-29T21:27:17.263Z,21.10
2018-09-29T21:29:46.052Z,22.20
2018-09-29T21:32:14.820Z,22.83
2018-09-29T21:34:43.612Z,22.40
2018-09-29T21:37:12.482Z,22.30
2018-09-29T21:39:41.722Z,22.17
2018-09-29T21:42:10.723Z,21.43
2018-09-29T21:44:39.765Z,22.50
2018-09-29T21:47:08.598Z,22.90
2018-09-29T21:49:37.387Z,22.00
2018-09-29T21:52:06.389Z,22.30
2018-09-29T21:54:35.297Z,22.33
2018-09-29T21:57:04.135Z,21.50
2018-09-29T21:59:33.000Z,22.30
2018-09-29T22:02:01.825Z,23.13
2018-09-29T22:04:30.683Z,22.73
2018-09-29T22:06:59.631Z,26.77
2018-09-29T22:09:28.441Z,22.63
2018-09-29T22:11:57.261Z,23.43
2018-09-29T22:14:26.057Z,23.57
2018-09-29T22:16:54.902Z,23.53
2018-09-29T22:19:23.724Z,23.50
2018-09-29T22:21:52.612Z,23.90
2018-09-29T22:24:21.431Z,24.10
2018-09-29T22:26:50.292Z,24.10
2018-09-29T22:29:19.109Z,24.17
2018-09-29T22:31:48.005Z,23.77
2018-09-29T22:34:16.969Z,23.50
2018-09-29T22:36:45.913Z,24.20
2018-09-29T22:39:14.779Z,24.60
2018-09-29T22:41:43.579Z,24.30
2018-09-29T22:44:12.516Z,25.23
2018-09-29T22:46:41.474Z,24.93
2018-09-29T22:49:10.328Z,24.77
2018-09-29T22:51:39.941Z,23.70
2018-09-29T22:54:08.720Z,24.97
2018-09-29T22:56:37.559Z,25.07
2018-09-29T22:59:06.411Z,24.63
2018-09-29T23:01:35.341Z,23.27
2018-09-29T23:04:04.214Z,25.00
2018-09-29T23:06:33.226Z,24.43
2018-09-29T23:09:02.059Z,25.27
2018-09-29T23:11:30.915Z,24.23
2018-09-29T23:14:00.060Z,24.73
2018-09-29T23:16:28.863Z,24.77
2018-09-29T23:18:57.752Z,25.07
2018-09-29T23:21:26.799Z,25.73
2018-09-29T23:23:55.680Z,25.17
2018-09-29T23:26:24.636Z,25.70
2018-09-29T23:28:53.431Z,26.13
2018-09-29T23:31:22.336Z,24.87
2018-09-29T23:33:51.176Z,25.63
2018-09-29T23:36:19.976Z,27.07
2018-09-29T23:38:48.964Z,25.37
2018-09-29T23:41:17.988Z,27.73
2018-09-29T23:43:46.947Z,25.70
2018-09-29T23:46:15.855Z,27.03
2018-09-29T23:48:44.721Z,25.93
2018-09-29T23:51:13.525Z,26.40
2018-09-29T23:53:42.359Z,27.10
2018-09-29T23:56:11.171Z,26.60
2018-09-29T23:58:40.040Z,25.47
